sensor_id;sensor_type;location;lat;lon;timestamp;pressure;altitude;pressure_sealevel;temperature;humidity
20350;BME280;10332;50.208;18.988;2023-05-25T00:01:44;98539.56;;;15.95;80.68
20350;BME280;10332;50.208;18.988;2023-05-25T00:04:15;98530.34;;;15.89;80.30
20350;BME280;10332;50.208;18.988;2023-05-25T00:06:45;98531.72;;;15.83;80.37
20350;BME280;10332;50.208;18.988;2023-05-25T00:09:14;98527.66;;;15.79;80.77
20350;BME280;10332;50.208;18.988;2023-05-25T00:11:41;98538.38;;;15.87;80.71
20350;BME280;10332;50.208;18.988;2023-05-25T00:14:09;98541.28;;;15.84;80.42
20350;BME280;10332;50.208;18.988;2023-05-25T00:16:36;98534.22;;;15.85;80.76
20350;BME280;10332;50.208;18.988;2023-05-25T00:19:07;98544.16;;;15.81;80.85
20350;BME280;10332;50.208;18.988;2023-05-25T00:21:37;98546.78;;;15.81;80.84
20350;BME280;10332;50.208;18.988;2023-05-25T00:24:05;98550.03;;;15.85;80.52
20350;BME280;10332;50.208;18.988;2023-05-25T00:26:34;98540.44;;;15.84;80.27
20350;BME280;10332;50.208;18.988;2023-05-25T00:29:03;98542.25;;;15.83;80.40
20350;BME280;10332;50.208;18.988;2023-05-25T00:31:30;98552.44;;;15.77;80.38
20350;BME280;10332;50.208;18.988;2023-05-25T00:34:00;98547.94;;;15.68;80.48
20350;BME280;10332;50.208;18.988;2023-05-25T00:36:27;98549.69;;;15.78;80.08
20350;BME280;10332;50.208;18.988;2023-05-25T00:38:55;98553.66;;;15.73;80.23
20350;BME280;10332;50.208;18.988;2023-05-25T00:41:24;98549.47;;;15.70;80.04
20350;BME280;10332;50.208;18.988;2023-05-25T00:43:53;98551.25;;;15.70;79.86
20350;BME280;10332;50.208;18.988;2023-05-25T00:46:21;98549.59;;;15.69;80.19
20350;BME280;10332;50.208;18.988;2023-05-25T00:48:54;98547.34;;;15.64;80.07
20350;BME280;10332;50.208;18.988;2023-05-25T00:51:23;98541.25;;;15.64;80.04
20350;BME280;10332;50.208;18.988;2023-05-25T00:53:52;98543.75;;;15.65;80.21
20350;BME280;10332;50.208;18.988;2023-05-25T00:56:25;98544.00;;;15.62;79.85
20350;BME280;10332;50.208;18.988;2023-05-25T00:58:59;98544.13;;;15.60;79.51
20350;BME280;10332;50.208;18.988;2023-05-25T01:04:22;98545.56;;;15.65;79.49
20350;BME280;10332;50.208;18.988;2023-05-25T01:06:51;98555.00;;;15.67;79.28
20350;BME280;10332;50.208;18.988;2023-05-25T01:09:22;98552.22;;;15.69;79.06
20350;BME280;10332;50.208;18.988;2023-05-25T01:11:51;98548.66;;;15.58;78.82
20350;BME280;10332;50.208;18.988;2023-05-25T01:14:21;98553.47;;;15.42;79.30
20350;BME280;10332;50.208;18.988;2023-05-25T01:16:49;98550.84;;;15.42;79.32
20350;BME280;10332;50.208;18.988;2023-05-25T01:19:18;98545.44;;;15.44;79.46
20350;BME280;10332;50.208;18.988;2023-05-25T01:22:00;98549.88;;;15.43;79.61
20350;BME280;10332;50.208;18.988;2023-05-25T01:24:53;98544.38;;;15.46;79.65
20350;BME280;10332;50.208;18.988;2023-05-25T01:27:35;98553.56;;;15.52;79.22
20350;BME280;10332;50.208;18.988;2023-05-25T01:30:12;98544.72;;;15.53;79.28
20350;BME280;10332;50.208;18.988;2023-05-25T01:32:42;98547.22;;;15.54;79.50
20350;BME280;10332;50.208;18.988;2023-05-25T01:35:10;98556.81;;;15.55;79.48
20350;BME280;10332;50.208;18.988;2023-05-25T01:37:45;98549.13;;;15.52;79.26
20350;BME280;10332;50.208;18.988;2023-05-25T01:40:14;98560.50;;;15.53;79.49
20350;BME280;10332;50.208;18.988;2023-05-25T01:42:41;98544.13;;;15.49;79.32
20350;BME280;10332;50.208;18.988;2023-05-25T01:45:12;98542.91;;;15.53;78.86
20350;BME280;10332;50.208;18.988;2023-05-25T01:47:43;98550.50;;;15.47;79.12
20350;BME280;10332;50.208;18.988;2023-05-25T01:50:27;98555.41;;;15.40;79.27
20350;BME280;10332;50.208;18.988;2023-05-25T01:53:09;98559.22;;;15.36;79.43
20350;BME280;10332;50.208;18.988;2023-05-25T01:55:46;98550.88;;;15.31;79.34
20350;BME280;10332;50.208;18.988;2023-05-25T01:58:15;98551.44;;;15.34;79.72
20350;BME280;10332;50.208;18.988;2023-05-25T02:00:48;98551.31;;;15.36;79.76
20350;BME280;10332;50.208;18.988;2023-05-25T02:03:17;98549.66;;;15.35;79.54
20350;BME280;10332;50.208;18.988;2023-05-25T02:05:46;98557.19;;;15.40;79.58
20350;BME280;10332;50.208;18.988;2023-05-25T02:08:14;98545.72;;;15.41;79.38
20350;BME280;10332;50.208;18.988;2023-05-25T02:10:41;98542.97;;;15.31;79.86
20350;BME280;10332;50.208;18.988;2023-05-25T02:13:09;98541.06;;;15.33;79.95
20350;BME280;10332;50.208;18.988;2023-05-25T02:15:36;98545.47;;;15.32;79.65
20350;BME280;10332;50.208;18.988;2023-05-25T02:18:04;98542.84;;;15.32;79.95
20350;BME280;10332;50.208;18.988;2023-05-25T02:20:32;98549.91;;;15.32;79.96
20350;BME280;10332;50.208;18.988;2023-05-25T02:22:59;98548.13;;;15.32;79.89
20350;BME280;10332;50.208;18.988;2023-05-25T02:25:27;98545.63;;;15.31;80.07
20350;BME280;10332;50.208;18.988;2023-05-25T02:27:54;98543.69;;;15.33;79.98
20350;BME280;10332;50.208;18.988;2023-05-25T02:30:22;98545.97;;;15.38;80.26
20350;BME280;10332;50.208;18.988;2023-05-25T02:32:49;98547.94;;;15.45;79.79
20350;BME280;10332;50.208;18.988;2023-05-25T02:35:17;98550.84;;;15.42;79.57
20350;BME280;10332;50.208;18.988;2023-05-25T02:37:44;98545.34;;;15.34;79.93
20350;BME280;10332;50.208;18.988;2023-05-25T02:40:16;98550.41;;;15.26;80.22
20350;BME280;10332;50.208;18.988;2023-05-25T02:42:43;98548.50;;;15.28;80.13
20350;BME280;10332;50.208;18.988;2023-05-25T02:45:11;98547.53;;;15.29;79.91
20350;BME280;10332;50.208;18.988;2023-05-25T02:47:38;98553.50;;;15.31;79.94
20350;BME280;10332;50.208;18.988;2023-05-25T02:50:06;98550.41;;;15.26;80.19
20350;BME280;10332;50.208;18.988;2023-05-25T02:52:34;98556.06;;;15.10;80.77
20350;BME280;10332;50.208;18.988;2023-05-25T02:55:01;98555.69;;;15.15;80.64
20350;BME280;10332;50.208;18.988;2023-05-25T02:57:29;98539.66;;;15.18;80.56
20350;BME280;10332;50.208;18.988;2023-05-25T02:59:57;98538.22;;;15.14;80.70
20350;BME280;10332;50.208;18.988;2023-05-25T03:02:24;98532.84;;;15.15;80.63
20350;BME280;10332;50.208;18.988;2023-05-25T03:04:52;98536.31;;;15.16;80.67
20350;BME280;10332;50.208;18.988;2023-05-25T03:07:22;98540.59;;;15.17;80.99
20350;BME280;10332;50.208;18.988;2023-05-25T03:09:53;98537.38;;;15.24;80.68
20350;BME280;10332;50.208;18.988;2023-05-25T03:12:20;98535.56;;;15.25;80.78
20350;BME280;10332;50.208;18.988;2023-05-25T03:14:48;98541.66;;;15.25;81.02
20350;BME280;10332;50.208;18.988;2023-05-25T03:17:15;98546.72;;;15.28;80.41
20350;BME280;10332;50.208;18.988;2023-05-25T03:19:43;98540.84;;;15.25;80.49
20350;BME280;10332;50.208;18.988;2023-05-25T03:22:10;98536.28;;;15.27;80.49
20350;BME280;10332;50.208;18.988;2023-05-25T03:24:38;98539.75;;;15.27;80.47
20350;BME280;10332;50.208;18.988;2023-05-25T03:27:11;98537.50;;;15.23;80.84
20350;BME280;10332;50.208;18.988;2023-05-25T03:29:38;98537.38;;;15.24;80.50
20350;BME280;10332;50.208;18.988;2023-05-25T03:32:06;98536.41;;;15.25;80.40
20350;BME280;10332;50.208;18.988;2023-05-25T03:34:34;98537.97;;;15.28;80.62
20350;BME280;10332;50.208;18.988;2023-05-25T03:37:02;98538.81;;;15.28;80.69
20350;BME280;10332;50.208;18.988;2023-05-25T03:39:29;98541.31;;;15.30;80.90
20350;BME280;10332;50.208;18.988;2023-05-25T03:41:57;98549.78;;;15.33;80.22
20350;BME280;10332;50.208;18.988;2023-05-25T03:44:25;98554.22;;;15.33;80.34
20350;BME280;10332;50.208;18.988;2023-05-25T03:46:52;98557.69;;;15.33;80.46
20350;BME280;10332;50.208;18.988;2023-05-25T03:49:20;98557.41;;;15.37;80.27
20350;BME280;10332;50.208;18.988;2023-05-25T03:51:47;98559.13;;;15.38;80.32
20350;BME280;10332;50.208;18.988;2023-05-25T03:54:14;98561.97;;;15.34;80.37
20350;BME280;10332;50.208;18.988;2023-05-25T03:56:42;98565.44;;;15.35;80.27
20350;BME280;10332;50.208;18.988;2023-05-25T03:59:27;98575.03;;;15.25;80.51
20350;BME280;10332;50.208;18.988;2023-05-25T04:01:54;98571.31;;;15.27;80.52
20350;BME280;10332;50.208;18.988;2023-05-25T04:04:22;98568.81;;;15.26;80.51
20350;BME280;10332;50.208;18.988;2023-05-25T04:06:49;98574.56;;;15.31;80.30
20350;BME280;10332;50.208;18.988;2023-05-25T04:09:18;98576.25;;;15.21;80.79
20350;BME280;10332;50.208;18.988;2023-05-25T04:11:45;98576.69;;;15.26;80.86
20350;BME280;10332;50.208;18.988;2023-05-25T04:14:13;98579.09;;;15.29;80.51
20350;BME280;10332;50.208;18.988;2023-05-25T04:16:41;98579.59;;;15.23;80.70
20350;BME280;10332;50.208;18.988;2023-05-25T04:19:08;98578.16;;;15.19;81.06
20350;BME280;10332;50.208;18.988;2023-05-25T04:21:36;98585.34;;;15.28;80.78
20350;BME280;10332;50.208;18.988;2023-05-25T04:24:04;98593.69;;;15.22;81.23
20350;BME280;10332;50.208;18.988;2023-05-25T04:26:31;98588.56;;;15.20;81.35
20350;BME280;10332;50.208;18.988;2023-05-25T04:28:59;98590.94;;;15.23;81.19
20350;BME280;10332;50.208;18.988;2023-05-25T04:31:28;98595.38;;;15.23;81.52
20350;BME280;10332;50.208;18.988;2023-05-25T04:33:55;98587.97;;;15.28;81.53
20350;BME280;10332;50.208;18.988;2023-05-25T04:36:25;98592.84;;;15.32;81.40
20350;BME280;10332;50.208;18.988;2023-05-25T04:38:52;98594.91;;;15.29;81.00
20350;BME280;10332;50.208;18.988;2023-05-25T04:41:21;98604.59;;;15.28;81.07
20350;BME280;10332;50.208;18.988;2023-05-25T04:43:49;98590.22;;;15.32;80.83
20350;BME280;10332;50.208;18.988;2023-05-25T04:46:35;98590.84;;;15.02;81.52
20350;BME280;10332;50.208;18.988;2023-05-25T04:49:05;98594.16;;;15.16;81.14
20350;BME280;10332;50.208;18.988;2023-05-25T04:51:34;98597.50;;;15.18;81.20
20350;BME280;10332;50.208;18.988;2023-05-25T04:54:04;98597.88;;;15.24;81.10
20350;BME280;10332;50.208;18.988;2023-05-25T04:56:32;98600.25;;;15.27;81.25
20350;BME280;10332;50.208;18.988;2023-05-25T04:58:59;98602.16;;;15.37;81.03
20350;BME280;10332;50.208;18.988;2023-05-25T05:01:26;98595.84;;;15.39;80.85
20350;BME280;10332;50.208;18.988;2023-05-25T05:03:55;98602.75;;;15.40;80.96
20350;BME280;10332;50.208;18.988;2023-05-25T05:06:23;98608.38;;;15.47;80.73
20350;BME280;10332;50.208;18.988;2023-05-25T05:08:52;98606.91;;;15.54;80.82
20350;BME280;10332;50.208;18.988;2023-05-25T05:11:19;98611.59;;;15.61;80.12
20350;BME280;10332;50.208;18.988;2023-05-25T05:13:47;98612.66;;;15.59;80.46
20350;BME280;10332;50.208;18.988;2023-05-25T05:16:14;98616.59;;;15.53;80.43
20350;BME280;10332;50.208;18.988;2023-05-25T05:18:42;98619.72;;;15.58;80.12
20350;BME280;10332;50.208;18.988;2023-05-25T05:21:09;98618.53;;;15.63;80.16
20350;BME280;10332;50.208;18.988;2023-05-25T05:23:37;98624.53;;;15.65;80.12
20350;BME280;10332;50.208;18.988;2023-05-25T05:26:05;98621.63;;;15.68;79.53
20350;BME280;10332;50.208;18.988;2023-05-25T05:28:37;98629.88;;;15.63;79.52
20350;BME280;10332;50.208;18.988;2023-05-25T05:31:04;98630.97;;;15.60;79.46
20350;BME280;10332;50.208;18.988;2023-05-25T05:33:34;98622.59;;;15.67;79.46
20350;BME280;10332;50.208;18.988;2023-05-25T05:36:02;98634.06;;;15.54;79.31
20350;BME280;10332;50.208;18.988;2023-05-25T05:38:31;98629.28;;;15.59;79.13
20350;BME280;10332;50.208;18.988;2023-05-25T05:40:58;98634.59;;;15.37;79.30
20350;BME280;10332;50.208;18.988;2023-05-25T05:43:26;98631.59;;;15.64;78.83
20350;BME280;10332;50.208;18.988;2023-05-25T05:45:53;98631.91;;;15.71;78.62
20350;BME280;10332;50.208;18.988;2023-05-25T05:48:21;98631.69;;;15.74;78.44
20350;BME280;10332;50.208;18.988;2023-05-25T05:50:48;98630.25;;;15.70;78.84
20350;BME280;10332;50.208;18.988;2023-05-25T05:53:16;98639.81;;;15.71;78.64
20350;BME280;10332;50.208;18.988;2023-05-25T05:55:43;98637.31;;;15.69;78.83
20350;BME280;10332;50.208;18.988;2023-05-25T05:58:13;98641.13;;;15.76;78.97
20350;BME280;10332;50.208;18.988;2023-05-25T06:00:40;98632.84;;;15.81;78.99
20350;BME280;10332;50.208;18.988;2023-05-25T06:03:08;98641.69;;;15.80;78.54
20350;BME280;10332;50.208;18.988;2023-05-25T06:05:35;98645.31;;;15.79;79.23
20350;BME280;10332;50.208;18.988;2023-05-25T06:08:03;98649.84;;;15.77;79.06
20350;BME280;10332;50.208;18.988;2023-05-25T06:10:32;98649.50;;;15.70;79.34
20350;BME280;10332;50.208;18.988;2023-05-25T06:13:00;98647.72;;;15.48;80.21
20350;BME280;10332;50.208;18.988;2023-05-25T06:15:27;98656.09;;;15.53;80.47
20350;BME280;10332;50.208;18.988;2023-05-25T06:17:55;98664.25;;;15.73;79.93
20350;BME280;10332;50.208;18.988;2023-05-25T06:20:22;98662.75;;;15.80;79.94
20350;BME280;10332;50.208;18.988;2023-05-25T06:22:50;98664.81;;;15.76;79.63
20350;BME280;10332;50.208;18.988;2023-05-25T06:25:18;98660.97;;;15.80;79.99
20350;BME280;10332;50.208;18.988;2023-05-25T06:27:46;98665.19;;;15.83;79.89
20350;BME280;10332;50.208;18.988;2023-05-25T06:30:13;98672.34;;;15.81;79.45
20350;BME280;10332;50.208;18.988;2023-05-25T06:32:41;98671.28;;;15.83;79.34
20350;BME280;10332;50.208;18.988;2023-05-25T06:35:09;98671.97;;;15.85;79.36
20350;BME280;10332;50.208;18.988;2023-05-25T06:37:44;98666.72;;;15.85;79.27
20350;BME280;10332;50.208;18.988;2023-05-25T06:40:12;98662.63;;;15.81;79.15
20350;BME280;10332;50.208;18.988;2023-05-25T06:42:40;98669.50;;;15.73;79.74
20350;BME280;10332;50.208;18.988;2023-05-25T06:45:08;98670.22;;;15.75;79.60
20350;BME280;10332;50.208;18.988;2023-05-25T06:47:36;98673.31;;;15.80;79.63
20350;BME280;10332;50.208;18.988;2023-05-25T06:50:05;98676.41;;;15.85;79.54
20350;BME280;10332;50.208;18.988;2023-05-25T06:52:32;98675.94;;;15.80;79.47
20350;BME280;10332;50.208;18.988;2023-05-25T06:55:00;98683.84;;;15.69;80.11
20350;BME280;10332;50.208;18.988;2023-05-25T06:57:28;98684.22;;;15.75;80.01
20350;BME280;10332;50.208;18.988;2023-05-25T06:59:55;98685.78;;;15.67;80.23
20350;BME280;10332;50.208;18.988;2023-05-25T07:02:23;98684.56;;;15.71;80.03
20350;BME280;10332;50.208;18.988;2023-05-25T07:04:50;98687.44;;;15.68;80.32
20350;BME280;10332;50.208;18.988;2023-05-25T07:07:18;98680.78;;;15.64;80.67
20350;BME280;10332;50.208;18.988;2023-05-25T07:09:45;98681.31;;;15.78;79.84
20350;BME280;10332;50.208;18.988;2023-05-25T07:12:13;98688.53;;;15.76;79.73
20350;BME280;10332;50.208;18.988;2023-05-25T07:14:41;98695.31;;;15.79;79.53
20350;BME280;10332;50.208;18.988;2023-05-25T07:17:09;98689.09;;;15.80;79.68
20350;BME280;10332;50.208;18.988;2023-05-25T07:19:38;98693.31;;;15.82;79.91
20350;BME280;10332;50.208;18.988;2023-05-25T07:22:06;98694.72;;;15.86;79.70
20350;BME280;10332;50.208;18.988;2023-05-25T07:24:33;98698.31;;;15.85;79.47
20350;BME280;10332;50.208;18.988;2023-05-25T07:27:02;98697.47;;;15.85;79.42
20350;BME280;10332;50.208;18.988;2023-05-25T07:29:29;98702.38;;;15.78;79.52
20350;BME280;10332;50.208;18.988;2023-05-25T07:31:57;98700.13;;;15.74;79.69
20350;BME280;10332;50.208;18.988;2023-05-25T07:34:24;98704.06;;;15.79;79.99
20350;BME280;10332;50.208;18.988;2023-05-25T07:36:54;98705.97;;;15.88;79.63
20350;BME280;10332;50.208;18.988;2023-05-25T07:39:21;98713.50;;;15.93;79.43
20350;BME280;10332;50.208;18.988;2023-05-25T07:41:49;98710.88;;;15.93;79.19
20350;BME280;10332;50.208;18.988;2023-05-25T07:44:17;98707.84;;;15.98;79.49
20350;BME280;10332;50.208;18.988;2023-05-25T07:46:44;98709.78;;;15.96;79.34
20350;BME280;10332;50.208;18.988;2023-05-25T07:49:12;98707.72;;;15.99;79.26
20350;BME280;10332;50.208;18.988;2023-05-25T07:51:43;98717.06;;;16.03;79.29
20350;BME280;10332;50.208;18.988;2023-05-25T07:54:11;98706.28;;;16.17;79.83
20350;BME280;10332;50.208;18.988;2023-05-25T07:56:39;98712.25;;;16.20;79.68
20350;BME280;10332;50.208;18.988;2023-05-25T07:59:07;98709.81;;;16.28;78.98
20350;BME280;10332;50.208;18.988;2023-05-25T08:01:34;98712.41;;;16.39;78.28
20350;BME280;10332;50.208;18.988;2023-05-25T08:04:02;98720.75;;;16.44;77.74
20350;BME280;10332;50.208;18.988;2023-05-25T08:06:30;98717.72;;;16.28;77.89
20350;BME280;10332;50.208;18.988;2023-05-25T08:08:58;98710.28;;;16.33;78.11
20350;BME280;10332;50.208;18.988;2023-05-25T08:11:26;98716.72;;;16.40;77.82
20350;BME280;10332;50.208;18.988;2023-05-25T08:13:53;98712.84;;;16.44;77.31
20350;BME280;10332;50.208;18.988;2023-05-25T08:16:21;98714.28;;;16.48;77.20
20350;BME280;10332;50.208;18.988;2023-05-25T08:18:49;98712.06;;;16.64;76.19
20350;BME280;10332;50.208;18.988;2023-05-25T08:21:17;98718.78;;;16.68;75.95
20350;BME280;10332;50.208;18.988;2023-05-25T08:23:44;98707.72;;;16.74;75.96
20350;BME280;10332;50.208;18.988;2023-05-25T08:26:12;98705.84;;;16.86;75.63
20350;BME280;10332;50.208;18.988;2023-05-25T08:28:59;98705.91;;;16.96;75.07
20350;BME280;10332;50.208;18.988;2023-05-25T08:31:30;98713.59;;;16.99;74.96
20350;BME280;10332;50.208;18.988;2023-05-25T08:34:00;98718.13;;;16.97;74.98
20350;BME280;10332;50.208;18.988;2023-05-25T08:36:28;98718.66;;;16.91;75.42
20350;BME280;10332;50.208;18.988;2023-05-25T08:38:56;98707.03;;;16.93;75.22
20350;BME280;10332;50.208;18.988;2023-05-25T08:41:23;98714.09;;;16.93;75.16
20350;BME280;10332;50.208;18.988;2023-05-25T08:43:52;98710.63;;;16.92;75.65
20350;BME280;10332;50.208;18.988;2023-05-25T08:46:30;98718.28;;;16.95;74.88
20350;BME280;10332;50.208;18.988;2023-05-25T08:49:05;98709.13;;;16.79;75.33
20350;BME280;10332;50.208;18.988;2023-05-25T08:51:38;98717.13;;;16.56;76.78
20350;BME280;10332;50.208;18.988;2023-05-25T08:54:11;98721.41;;;16.68;76.71
20350;BME280;10332;50.208;18.988;2023-05-25T08:57:09;98723.34;;;16.23;78.14
20350;BME280;10332;50.208;18.988;2023-05-25T08:59:52;98722.78;;;16.20;77.98
20350;BME280;10332;50.208;18.988;2023-05-25T09:05:18;98722.19;;;16.48;77.15
20350;BME280;10332;50.208;18.988;2023-05-25T09:07:47;98716.72;;;16.40;77.36
20350;BME280;10332;50.208;18.988;2023-05-25T09:10:16;98716.06;;;16.15;78.27
20350;BME280;10332;50.208;18.988;2023-05-25T09:12:45;98718.34;;;16.20;78.64
20350;BME280;10332;50.208;18.988;2023-05-25T09:15:12;98717.28;;;16.43;78.66
20350;BME280;10332;50.208;18.988;2023-05-25T09:17:40;98721.38;;;16.04;79.01
20350;BME280;10332;50.208;18.988;2023-05-25T09:20:10;98723.13;;;16.15;78.94
20350;BME280;10332;50.208;18.988;2023-05-25T09:22:40;98724.72;;;16.06;79.14
20350;BME280;10332;50.208;18.988;2023-05-25T09:25:10;98718.22;;;16.22;79.21
20350;BME280;10332;50.208;18.988;2023-05-25T09:27:38;98721.03;;;16.41;78.39
20350;BME280;10332;50.208;18.988;2023-05-25T09:30:06;98723.38;;;16.55;77.54
20350;BME280;10332;50.208;18.988;2023-05-25T09:32:34;98724.06;;;16.68;76.91
20350;BME280;10332;50.208;18.988;2023-05-25T09:35:11;98726.44;;;16.60;77.06
20350;BME280;10332;50.208;18.988;2023-05-25T09:37:43;98725.22;;;16.76;77.03
20350;BME280;10332;50.208;18.988;2023-05-25T09:40:10;98732.16;;;16.77;77.34
20350;BME280;10332;50.208;18.988;2023-05-25T09:42:40;98730.34;;;16.98;76.47
20350;BME280;10332;50.208;18.988;2023-05-25T09:45:08;98723.09;;;17.11;76.14
20350;BME280;10332;50.208;18.988;2023-05-25T09:47:36;98724.94;;;17.20;75.37
20350;BME280;10332;50.208;18.988;2023-05-25T09:50:05;98727.41;;;17.12;75.26
20350;BME280;10332;50.208;18.988;2023-05-25T09:52:35;98735.03;;;17.15;75.55
20350;BME280;10332;50.208;18.988;2023-05-25T09:55:03;98732.16;;;16.77;75.61
20350;BME280;10332;50.208;18.988;2023-05-25T09:57:30;98729.66;;;16.75;76.19
20350;BME280;10332;50.208;18.988;2023-05-25T09:59:58;98727.78;;;16.87;75.99
20350;BME280;10332;50.208;18.988;2023-05-25T10:02:36;98731.84;;;16.91;75.59
20350;BME280;10332;50.208;18.988;2023-05-25T10:05:04;98733.09;;;16.55;76.56
20350;BME280;10332;50.208;18.988;2023-05-25T10:07:35;98727.72;;;16.98;75.31
20350;BME280;10332;50.208;18.988;2023-05-25T10:10:07;98733.06;;;17.28;74.70
20350;BME280;10332;50.208;18.988;2023-05-25T10:12:51;98730.69;;;17.56;73.35
20350;BME280;10332;50.208;18.988;2023-05-25T10:15:21;98727.06;;;17.87;73.55
20350;BME280;10332;50.208;18.988;2023-05-25T10:17:53;98724.66;;;18.25;71.38
20350;BME280;10332;50.208;18.988;2023-05-25T10:20:22;98723.00;;;18.33;69.97
20350;BME280;10332;50.208;18.988;2023-05-25T10:23:15;98719.75;;;18.30;69.92
20350;BME280;10332;50.208;18.988;2023-05-25T10:25:46;98721.19;;;18.34;70.19
20350;BME280;10332;50.208;18.988;2023-05-25T10:28:35;98727.00;;;18.28;70.11
20350;BME280;10332;50.208;18.988;2023-05-25T10:31:05;98728.66;;;18.19;70.06
20350;BME280;10332;50.208;18.988;2023-05-25T10:33:36;98728.75;;;17.89;71.13
20350;BME280;10332;50.208;18.988;2023-05-25T10:36:05;98739.03;;;17.92;71.37
20350;BME280;10332;50.208;18.988;2023-05-25T10:38:40;98730.84;;;17.95;71.52
20350;BME280;10332;50.208;18.988;2023-05-25T10:41:10;98732.34;;;17.57;72.80
20350;BME280;10332;50.208;18.988;2023-05-25T10:43:39;98738.19;;;17.91;72.21
20350;BME280;10332;50.208;18.988;2023-05-25T10:46:07;98736.84;;;18.06;71.15
20350;BME280;10332;50.208;18.988;2023-05-25T10:48:45;98732.16;;;18.20;71.06
20350;BME280;10332;50.208;18.988;2023-05-25T10:51:14;98730.47;;;18.28;71.18
20350;BME280;10332;50.208;18.988;2023-05-25T10:53:47;98732.16;;;18.39;70.94
20350;BME280;10332;50.208;18.988;2023-05-25T10:56:26;98733.41;;;18.25;70.12
20350;BME280;10332;50.208;18.988;2023-05-25T10:58:54;98735.00;;;16.85;73.81
20350;BME280;10332;50.208;18.988;2023-05-25T11:01:23;98731.09;;;17.30;72.86
20350;BME280;10332;50.208;18.988;2023-05-25T11:04:13;98732.91;;;17.91;71.31
20350;BME280;10332;50.208;18.988;2023-05-25T11:09:29;98726.72;;;18.60;69.57
20350;BME280;10332;50.208;18.988;2023-05-25T11:17:21;98712.09;;;18.94;67.80
20350;BME280;10332;50.208;18.988;2023-05-25T11:19:53;98718.56;;;18.73;68.56
20350;BME280;10332;50.208;18.988;2023-05-25T11:22:34;98720.91;;;18.85;67.54
20350;BME280;10332;50.208;18.988;2023-05-25T11:25:41;98718.94;;;18.78;67.71
20350;BME280;10332;50.208;18.988;2023-05-25T11:28:09;98720.63;;;18.69;68.50
20350;BME280;10332;50.208;18.988;2023-05-25T11:30:41;98718.13;;;18.77;68.53
20350;BME280;10332;50.208;18.988;2023-05-25T11:33:09;98719.50;;;18.62;68.64
20350;BME280;10332;50.208;18.988;2023-05-25T11:35:37;98716.19;;;18.79;68.90
20350;BME280;10332;50.208;18.988;2023-05-25T11:38:06;98712.69;;;18.88;68.82
20350;BME280;10332;50.208;18.988;2023-05-25T11:40:35;98714.34;;;18.99;68.34
20350;BME280;10332;50.208;18.988;2023-05-25T11:43:10;98713.66;;;18.97;67.63
20350;BME280;10332;50.208;18.988;2023-05-25T11:45:39;98716.44;;;18.86;68.23
20350;BME280;10332;50.208;18.988;2023-05-25T11:48:12;98714.59;;;18.96;68.31
20350;BME280;10332;50.208;18.988;2023-05-25T11:50:41;98717.25;;;19.15;67.88
20350;BME280;10332;50.208;18.988;2023-05-25T11:53:08;98721.44;;;19.08;68.07
20350;BME280;10332;50.208;18.988;2023-05-25T11:55:48;98714.91;;;18.93;67.79
20350;BME280;10332;50.208;18.988;2023-05-25T11:58:19;98711.72;;;18.80;68.32
20350;BME280;10332;50.208;18.988;2023-05-25T12:00:47;98717.28;;;18.86;68.65
20350;BME280;10332;50.208;18.988;2023-05-25T12:03:30;98711.16;;;18.86;68.99
20350;BME280;10332;50.208;18.988;2023-05-25T12:05:58;98706.13;;;18.92;68.65
20350;BME280;10332;50.208;18.988;2023-05-25T12:08:33;98713.78;;;19.05;68.66
20350;BME280;10332;50.208;18.988;2023-05-25T12:11:02;98716.41;;;19.15;68.40
20350;BME280;10332;50.208;18.988;2023-05-25T12:13:30;98703.81;;;19.26;68.21
20350;BME280;10332;50.208;18.988;2023-05-25T12:15:58;98700.75;;;19.21;68.31
20350;BME280;10332;50.208;18.988;2023-05-25T12:18:29;98701.06;;;19.18;68.38
20350;BME280;10332;50.208;18.988;2023-05-25T12:20:57;98697.41;;;19.29;68.24
20350;BME280;10332;50.208;18.988;2023-05-25T12:23:24;98701.81;;;19.38;67.92
20350;BME280;10332;50.208;18.988;2023-05-25T12:26:10;98692.28;;;19.55;67.68
20350;BME280;10332;50.208;18.988;2023-05-25T12:28:39;98696.41;;;19.67;67.52
20350;BME280;10332;50.208;18.988;2023-05-25T12:31:28;98696.69;;;19.74;66.75
20350;BME280;10332;50.208;18.988;2023-05-25T12:34:11;98698.75;;;19.80;67.21
20350;BME280;10332;50.208;18.988;2023-05-25T12:39:07;98695.00;;;20.00;66.76
20350;BME280;10332;50.208;18.988;2023-05-25T12:44:29;98689.69;;;20.00;66.80
20350;BME280;10332;50.208;18.988;2023-05-25T12:49:43;98699.69;;;19.89;66.54
20350;BME280;10332;50.208;18.988;2023-05-25T12:52:35;98681.66;;;19.65;67.13
20350;BME280;10332;50.208;18.988;2023-05-25T12:55:29;98683.47;;;19.64;67.38
20350;BME280;10332;50.208;18.988;2023-05-25T12:58:05;98678.59;;;19.69;67.54
20350;BME280;10332;50.208;18.988;2023-05-25T13:00:38;98680.47;;;19.77;67.19
20350;BME280;10332;50.208;18.988;2023-05-25T13:03:06;98690.25;;;19.76;66.78
20350;BME280;10332;50.208;18.988;2023-05-25T13:05:36;98687.53;;;19.68;67.41
20350;BME280;10332;50.208;18.988;2023-05-25T13:08:05;98688.00;;;19.44;68.37
20350;BME280;10332;50.208;18.988;2023-05-25T13:10:37;98686.16;;;19.54;68.27
20350;BME280;10332;50.208;18.988;2023-05-25T13:13:05;98691.19;;;19.58;68.03
20350;BME280;10332;50.208;18.988;2023-05-25T13:15:32;98684.22;;;19.56;68.60
20350;BME280;10332;50.208;18.988;2023-05-25T13:18:00;98682.50;;;19.55;68.60
20350;BME280;10332;50.208;18.988;2023-05-25T13:20:28;98680.97;;;19.63;68.61
20350;BME280;10332;50.208;18.988;2023-05-25T13:22:57;98673.47;;;19.58;68.33
20350;BME280;10332;50.208;18.988;2023-05-25T13:25:24;98680.31;;;19.61;68.29
20350;BME280;10332;50.208;18.988;2023-05-25T13:27:55;98668.59;;;19.53;68.80